createdAt,value
2023-01-10T00:01:44.245Z,100840.38
2023-01-10T00:04:12.431Z,100852.91
2023-01-10T00:06:40.407Z,100863.72
2023-01-10T00:09:08.848Z,100863.03
2023-01-10T00:11:53.468Z,100873.00
2023-01-10T00:14:21.785Z,100875.56
2023-01-10T00:16:51.188Z,100873.56
2023-01-10T00:19:19.108Z,100885.97
2023-01-10T00:21:47.137Z,100897.09
2023-01-10T00:24:20.415Z,100892.53
2023-01-10T00:26:52.107Z,100899.09
2023-01-10T00:29:21.158Z,100906.47
2023-01-10T00:31:50.808Z,100915.91
2023-01-10T00:34:18.737Z,100912.47
2023-01-10T00:36:48.025Z,100914.88
2023-01-10T00:39:19.193Z,100915.28
2023-01-10T00:42:04.954Z,100926.00
2023-01-10T00:44:32.929Z,100932.69
2023-01-10T00:47:02.235Z,100939.53
2023-01-10T00:49:30.361Z,100937.56
2023-01-10T00:51:59.655Z,100949.78
2023-01-10T00:54:27.743Z,100952.97
2023-01-10T00:56:55.910Z,100951.66
2023-01-10T00:59:24.491Z,100956.38
2023-01-10T01:01:53.255Z,100951.81
2023-01-10T01:04:22.945Z,100952.78
2023-01-10T01:06:50.993Z,100957.34
2023-01-10T01:09:19.168Z,100970.50
2023-01-10T01:11:47.138Z,100972.91
2023-01-10T01:14:15.111Z,100973.03
2023-01-10T01:16:42.993Z,100975.19
2023-01-10T01:19:11.219Z,100976.94
2023-01-10T01:21:40.488Z,100975.25
2023-01-10T01:24:09.798Z,100985.13
2023-01-10T01:26:37.799Z,100985.81
2023-01-10T01:29:07.018Z,100990.97
2023-01-10T01:31:34.946Z,100992.50
2023-01-10T01:34:03.198Z,100998.94
2023-01-10T01:36:31.333Z,101004.06
2023-01-10T01:39:00.607Z,101011.06
2023-01-10T01:41:45.898Z,101007.66
2023-01-10T01:44:17.491Z,101015.69
2023-01-10T01:46:48.741Z,101020.44
2023-01-10T01:49:21.536Z,101017.16
2023-01-10T01:51:52.140Z,101020.03
2023-01-10T01:54:22.004Z,101031.19
2023-01-10T01:56:56.089Z,101028.59
2023-01-10T01:59:27.742Z,101035.03
2023-01-10T02:01:58.853Z,101044.16
2023-01-10T02:04:32.782Z,101054.91
2023-01-10T02:07:00.858Z,101060.47
2023-01-10T02:09:35.706Z,101061.84
2023-01-10T02:12:04.143Z,101055.59
2023-01-10T02:14:34.476Z,101055.13
2023-01-10T02:17:02.377Z,101051.44
2023-01-10T02:19:43.484Z,101040.91
2023-01-10T02:22:51.651Z,101047.66
2023-01-10T02:25:46.980Z,101046.63
2023-01-10T02:28:43.358Z,101053.00
2023-01-10T02:31:44.457Z,101049.13
2023-01-10T02:34:21.182Z,101051.69
2023-01-10T02:37:00.306Z,101049.00
2023-01-10T02:39:35.800Z,101052.09
2023-01-10T02:42:09.482Z,101047.84
2023-01-10T02:44:44.266Z,101052.44
2023-01-10T02:47:14.971Z,101053.16
2023-01-10T02:49:45.711Z,101056.03
2023-01-10T02:52:16.529Z,101064.31
2023-01-10T02:54:45.030Z,101069.16
2023-01-10T02:57:39.009Z,101067.13
2023-01-10T03:00:35.219Z,101065.88
2023-01-10T03:03:17.790Z,101085.09
2023-01-10T03:05:56.937Z,101083.00
2023-01-10T03:08:34.933Z,101087.78
2023-01-10T03:11:04.673Z,101083.06
2023-01-10T03:13:39.054Z,101089.03
2023-01-10T03:16:11.396Z,101087.06
2023-01-10T03:18:45.973Z,101090.75
2023-01-10T03:21:16.874Z,101091.91
2023-01-10T03:23:46.897Z,101095.28
2023-01-10T03:26:16.207Z,101113.06
2023-01-10T03:28:49.858Z,101110.00
2023-01-10T03:31:23.395Z,101112.88
2023-01-10T03:33:51.502Z,101127.19
2023-01-10T03:36:30.981Z,101135.69
2023-01-10T03:39:06.288Z,101132.78
2023-01-10T03:41:39.165Z,101141.09
2023-01-10T03:44:33.935Z,101151.41
2023-01-10T03:47:08.267Z,101146.69
2023-01-10T03:49:39.435Z,101154.66
2023-01-10T03:52:12.549Z,101148.84
2023-01-10T03:54:43.012Z,101149.34
2023-01-10T03:57:17.621Z,101155.50
2023-01-10T03:59:45.631Z,101154.28
2023-01-10T04:02:13.682Z,101158.13
2023-01-10T04:04:41.673Z,101155.66
2023-01-10T04:07:11.175Z,101156.84
2023-01-10T04:09:39.558Z,101161.00
2023-01-10T04:12:07.745Z,101162.22
2023-01-10T04:14:35.715Z,101154.75
2023-01-10T04:17:04.611Z,101151.09
2023-01-10T04:19:32.649Z,101155.25
2023-01-10T04:22:00.736Z,101160.41
2023-01-10T04:24:30.053Z,101157.19
2023-01-10T04:26:57.952Z,101159.41
2023-01-10T04:29:25.925Z,101170.22
2023-01-10T04:31:54.459Z,101172.66
2023-01-10T04:34:22.661Z,101166.03
2023-01-10T04:36:51.024Z,101171.59
2023-01-10T04:39:18.991Z,101185.00
2023-01-10T04:41:48.207Z,101182.72
2023-01-10T04:44:16.067Z,101187.88
2023-01-10T04:46:44.156Z,101193.75
2023-01-10T04:49:12.447Z,101201.84
2023-01-10T04:51:40.760Z,101211.81
2023-01-10T04:54:08.807Z,101217.56
2023-01-10T04:56:36.930Z,101227.47
2023-01-10T04:59:06.589Z,101222.06
2023-01-10T05:01:35.470Z,101213.09
2023-01-10T05:04:04.024Z,101215.13
2023-01-10T05:06:32.014Z,101224.59
2023-01-10T05:08:59.966Z,101229.00
2023-01-10T05:11:27.988Z,101234.56
2023-01-10T05:13:55.971Z,101237.66
2023-01-10T05:16:25.548Z,101248.09
2023-01-10T05:18:53.480Z,101248.09
2023-01-10T05:21:21.436Z,101252.72
2023-01-10T05:23:49.391Z,101259.25
2023-01-10T05:26:20.396Z,101264.28
2023-01-10T05:28:49.784Z,101268.63
2023-01-10T05:31:19.685Z,101263.28
2023-01-10T05:33:50.742Z,101266.13
2023-01-10T05:36:19.877Z,101256.56
2023-01-10T05:38:48.570Z,101269.72
2023-01-10T05:41:16.612Z,101268.31
2023-01-10T05:43:44.642Z,101275.69
2023-01-10T05:46:12.941Z,101289.59
2023-01-10T05:48:41.041Z,101283.16
2023-01-10T05:51:10.358Z,101277.41
2023-01-10T05:53:38.521Z,101280.25
2023-01-10T05:56:07.762Z,101279.09
2023-01-10T05:58:36.112Z,101278.72
2023-01-10T06:01:04.495Z,101279.69
2023-01-10T06:03:32.629Z,101283.81
2023-01-10T06:06:00.507Z,101288.31
2023-01-10T06:08:30.041Z,101282.31
2023-01-10T06:10:58.103Z,101288.94
2023-01-10T06:13:26.128Z,101301.00
2023-01-10T06:15:54.266Z,101296.16
2023-01-10T06:18:22.695Z,101295.94
2023-01-10T06:20:50.785Z,101300.88
2023-01-10T06:23:18.681Z,101307.22
2023-01-10T06:25:48.157Z,101316.91
2023-01-10T06:28:16.455Z,101319.09
2023-01-10T06:30:45.010Z,101322.59
2023-01-10T06:33:13.642Z,101308.47
2023-01-10T06:35:42.316Z,101300.06
2023-01-10T06:38:10.383Z,101316.66
2023-01-10T06:40:38.811Z,101320.38
2023-01-10T06:43:08.062Z,101308.78
2023-01-10T06:45:36.218Z,101310.25
2023-01-10T06:48:04.620Z,101312.84
2023-01-10T06:50:32.901Z,101321.34
2023-01-10T06:53:03.686Z,101329.59
2023-01-10T06:55:33.256Z,101326.72
2023-01-10T06:58:02.886Z,101324.34
2023-01-10T07:00:33.245Z,101319.09
2023-01-10T07:03:03.463Z,101323.47
2023-01-10T07:05:31.503Z,101330.44
2023-01-10T07:08:01.447Z,101335.41
2023-01-10T07:10:29.847Z,101359.44
2023-01-10T07:12:58.518Z,101379.19
2023-01-10T07:15:27.255Z,101373.91
2023-01-10T07:17:57.908Z,101390.38
2023-01-10T07:20:26.840Z,101401.50
2023-01-10T07:22:56.066Z,101393.59
2023-01-10T07:25:24.744Z,101402.72
2023-01-10T07:27:55.406Z,101404.22
2023-01-10T07:30:25.452Z,101404.84
2023-01-10T07:32:58.720Z,101409.91
2023-01-10T07:35:27.663Z,101404.34
2023-01-10T07:37:58.702Z,101408.78
2023-01-10T07:40:27.830Z,101408.59
2023-01-10T07:42:58.312Z,101419.78
2023-01-10T07:45:28.428Z,101422.13
2023-01-10T07:47:58.895Z,101430.97
2023-01-10T07:50:28.899Z,101432.66
2023-01-10T07:52:57.228Z,101445.38
2023-01-10T07:55:25.826Z,101444.38
2023-01-10T07:57:53.897Z,101441.69
2023-01-10T08:00:22.771Z,101447.56
2023-01-10T08:02:54.981Z,101443.38
2023-01-10T08:05:25.338Z,101435.63
2023-01-10T08:07:55.338Z,101430.19
2023-01-10T08:10:23.403Z,101436.28
2023-01-10T08:12:51.538Z,101433.50
2023-01-10T08:15:20.016Z,101439.34
2023-01-10T08:17:48.292Z,101425.44
2023-01-10T08:20:17.121Z,101435.34
2023-01-10T08:22:46.729Z,101441.03
2023-01-10T08:25:14.768Z,101453.34
2023-01-10T08:27:42.905Z,101462.56
2023-01-10T08:30:12.671Z,101466.16
2023-01-10T08:32:40.996Z,101463.69
2023-01-10T08:35:10.277Z,101469.69
2023-01-10T08:37:39.474Z,101456.91
2023-01-10T08:40:10.663Z,101472.53
2023-01-10T08:42:39.003Z,101464.56
2023-01-10T08:45:08.251Z,101467.38
2023-01-10T08:47:36.491Z,101465.56
2023-01-10T08:50:07.924Z,101475.66
2023-01-10T08:52:36.399Z,101475.41
2023-01-10T08:55:05.178Z,101491.75
2023-01-10T08:57:34.951Z,101495.09
2023-01-10T09:00:04.210Z,101498.03
2023-01-10T09:02:32.357Z,101501.97
2023-01-10T09:05:00.434Z,101501.81
2023-01-10T09:07:28.947Z,101507.00
2023-01-10T09:09:57.159Z,101496.66
2023-01-10T09:12:42.761Z,101490.03
2023-01-10T09:15:13.973Z,101503.06
2023-01-10T09:17:42.172Z,101507.13
2023-01-10T09:20:11.797Z,101509.47
2023-01-10T09:22:40.841Z,101515.25
2023-01-10T09:25:09.604Z,101506.97
2023-01-10T09:27:37.932Z,101513.00
2023-01-10T09:30:07.280Z,101509.59
2023-01-10T09:32:38.272Z,101516.72
2023-01-10T09:35:07.613Z,101519.28
2023-01-10T09:37:38.004Z,101515.97
2023-01-10T09:40:08.497Z,101511.91
2023-01-10T09:42:50.359Z,101507.69
2023-01-10T09:45:22.935Z,101513.25
2023-01-10T09:47:59.532Z,101515.69
2023-01-10T09:50:38.581Z,101499.78
2023-01-10T09:53:12.288Z,101509.25
2023-01-10T09:55:42.115Z,101512.22
2023-01-10T09:58:14.348Z,101519.22
2023-01-10T10:00:46.311Z,101524.06
2023-01-10T10:03:26.773Z,101530.66
2023-01-10T10:06:03.823Z,101538.94
2023-01-10T10:08:39.119Z,101524.28
2023-01-10T10:11:25.022Z,101525.41
2023-01-10T10:14:01.105Z,101517.66
2023-01-10T10:16:38.864Z,101522.06
2023-01-10T10:19:20.298Z,101506.34
2023-01-10T10:21:59.941Z,101504.69
2023-01-10T10:24:44.491Z,101494.84
2023-01-10T10:27:22.650Z,101494.13
2023-01-10T10:30:11.729Z,101503.47
2023-01-10T10:33:15.680Z,101488.91
2023-01-10T10:35:54.316Z,101484.63
2023-01-10T10:38:29.793Z,101478.72
2023-01-10T10:41:01.051Z,101477.75
2023-01-10T10:43:35.197Z,101480.19
2023-01-10T10:46:06.792Z,101479.28
2023-01-10T10:48:40.974Z,101477.59
2023-01-10T10:51:18.769Z,101485.34
2023-01-10T10:53:48.515Z,101486.09
2023-01-10T10:56:21.071Z,101480.78
2023-01-10T10:58:53.786Z,101482.97
2023-01-10T11:01:24.058Z,101479.09
2023-01-10T11:03:57.556Z,101477.16
2023-01-10T11:06:29.575Z,101478.47
2023-01-10T11:09:01.306Z,101477.78
2023-01-10T11:11:34.352Z,101468.97
2023-01-10T11:17:26.351Z,101467.19
2023-01-10T11:19:59.877Z,101457.47
2023-01-10T11:22:33.946Z,101449.59
2023-01-10T11:25:03.857Z,101460.22
2023-01-10T11:27:34.514Z,101453.72
2023-01-10T11:30:05.109Z,101453.56
2023-01-10T11:32:36.627Z,101457.47
2023-01-10T11:35:09.253Z,101465.00
2023-01-10T11:37:38.715Z,101446.16
2023-01-10T11:40:24.203Z,101441.88
2023-01-10T11:42:57.615Z,101442.59
2023-01-10T11:45:32.973Z,101448.94
2023-01-10T11:48:08.781Z,101445.59
2023-01-10T11:50:39.378Z,101433.03
2023-01-10T11:53:32.146Z,101435.00
2023-01-10T11:56:00.300Z,101436.56
2023-01-10T11:58:33.124Z,101432.81
2023-01-10T12:01:02.097Z,101438.91
2023-01-10T12:03:36.833Z,101431.41
2023-01-10T12:06:09.527Z,101428.38
2023-01-10T12:08:42.363Z,101423.31
2023-01-10T12:11:27.531Z,101408.03
2023-01-10T12:13:57.822Z,101428.88
2023-01-10T12:16:28.496Z,101416.41
2023-01-10T12:18:59.929Z,101414.88
2023-01-10T12:21:35.485Z,101401.94
2023-01-10T12:24:13.377Z,101402.09
2023-01-10T12:26:42.739Z,101398.19
2023-01-10T12:29:18.379Z,101391.63
2023-01-10T12:31:47.071Z,101390.50
2023-01-10T12:34:20.300Z,101397.53
2023-01-10T12:37:00.673Z,101380.94
2023-01-10T12:39:35.088Z,101383.38
2023-01-10T12:42:32.222Z,101373.31
2023-01-10T12:45:08.108Z,101370.69
2023-01-10T12:47:44.501Z,101370.00
2023-01-10T12:50:16.940Z,101366.16
2023-01-10T12:52:49.657Z,101366.84
2023-01-10T12:55:20.801Z,101360.19
2023-01-10T12:57:53.548Z,101366.00
2023-01-10T13:00:25.650Z,101356.56
2023-01-10T13:02:57.140Z,101356.09
2023-01-10T13:05:28.004Z,101358.22
2023-01-10T13:08:01.235Z,101362.16
2023-01-10T13:10:32.488Z,101364.69
2023-01-10T13:13:07.441Z,101363.34
2023-01-10T13:15:39.955Z,101355.56
2023-01-10T13:18:21.243Z,101351.53
2023-01-10T13:20:49.451Z,101351.72
2023-01-10T13:23:30.240Z,101354.56
2023-01-10T13:26:04.806Z,101348.28
2023-01-10T13:28:35.507Z,101350.97
2023-01-10T13:31:07.272Z,101360.34
2023-01-10T13:33:48.679Z,101357.91
2023-01-10T13:36:21.811Z,101354.13
2023-01-10T13:38:52.568Z,101341.53
2023-01-10T13:41:40.421Z,101331.56
2023-01-10T13:44:11.578Z,101341.16
2023-01-10T13:46:51.665Z,101324.09
2023-01-10T13:49:27.755Z,101318.19
2023-01-10T13:52:34.998Z,101311.41
2023-01-10T13:55:21.524Z,101312.44
2023-01-10T13:57:55.912Z,101300.59
2023-01-10T14:01:00.981Z,101295.41
2023-01-10T14:03:44.715Z,101275.63
2023-01-10T14:06:18.978Z,101271.63
2023-01-10T14:08:53.840Z,101275.25
2023-01-10T14:11:26.393Z,101264.53
2023-01-10T14:14:00.179Z,101265.53
2023-01-10T14:19:23.041Z,101261.06
2023-01-10T14:21:55.051Z,101253.97
2023-01-10T14:24:29.443Z,101237.06
2023-01-10T14:27:01.667Z,101240.38
2023-01-10T14:29:34.463Z,101231.88
2023-01-10T14:32:04.353Z,101221.16
2023-01-10T14:34:37.300Z,101214.69
2023-01-10T14:37:11.220Z,101210.97
2023-01-10T14:39:39.920Z,101222.00
2023-01-10T14:42:14.396Z,101201.22
2023-01-10T14:44:49.784Z,101196.00
2023-01-10T14:47:29.379Z,101197.81
2023-01-10T14:49:59.122Z,101190.91
2023-01-10T14:52:28.595Z,101197.84
2023-01-10T14:55:05.954Z,101182.91
2023-01-10T14:57:34.203Z,101183.16
2023-01-10T15:00:10.582Z,101173.13
2023-01-10T15:02:39.359Z,101170.19
2023-01-10T15:05:10.574Z,101167.84
2023-01-10T15:07:39.221Z,101167.53
2023-01-10T15:10:23.331Z,101162.31
2023-01-10T15:12:53.991Z,101164.94
2023-01-10T15:15:29.869Z,101156.72
2023-01-10T15:17:59.152Z,101147.38
2023-01-10T15:20:27.954Z,101135.69
2023-01-10T15:22:58.565Z,101142.25
2023-01-10T15:25:30.524Z,101135.00
2023-01-10T15:28:00.071Z,101143.56
2023-01-10T15:30:36.556Z,101132.19
2023-01-10T15:33:10.085Z,101116.28
2023-01-10T15:35:38.260Z,101111.00
2023-01-10T15:38:09.907Z,101110.28
2023-01-10T15:40:40.240Z,101120.59
2023-01-10T15:43:25.488Z,101105.31
2023-01-10T15:45:56.693Z,101091.91
2023-01-10T15:48:31.050Z,101097.69
2023-01-10T15:51:04.526Z,101088.78
2023-01-10T15:53:52.120Z,101090.44
2023-01-10T15:56:23.157Z,101087.75
2023-01-10T15:58:51.463Z,101089.38
2023-01-10T16:01:21.373Z,101075.47
2023-01-10T16:03:52.238Z,101075.22
2023-01-10T16:06:24.391Z,101072.06
2023-01-10T16:08:55.037Z,101065.38
2023-01-10T16:11:45.090Z,101060.41
2023-01-10T16:14:13.038Z,101063.38
2023-01-10T16:16:42.395Z,101050.44
2023-01-10T16:19:10.376Z,101052.00
2023-01-10T16:21:43.314Z,101058.63
2023-01-10T16:24:18.955Z,101058.25
2023-01-10T16:26:47.816Z,101044.53
2023-01-10T16:29:16.257Z,101026.78
2023-01-10T16:31:45.807Z,101019.75
2023-01-10T16:34:14.055Z,101021.84
2023-01-10T16:36:44.088Z,101015.94
2023-01-10T16:39:16.655Z,101011.41
2023-01-10T16:42:03.709Z,101000.41
2023-01-10T16:44:32.605Z,100999.16
2023-01-10T16:47:04.900Z,100997.41
2023-01-10T16:49:35.037Z,100987.13
2023-01-10T16:52:03.628Z,100976.66
2023-01-10T16:54:35.401Z,100986.38
2023-01-10T16:57:03.463Z,100967.16
2023-01-10T16:59:31.450Z,100953.72
2023-01-10T17:01:59.578Z,100940.25
2023-01-10T17:04:32.810Z,100925.81
2023-01-10T17:07:00.930Z,100913.00
2023-01-10T17:09:31.548Z,100909.16
2023-01-10T17:12:03.589Z,100889.06
2023-01-10T17:14:33.202Z,100890.22
2023-01-10T17:17:03.166Z,100888.66
2023-01-10T17:19:32.945Z,100875.69
2023-01-10T17:22:01.388Z,100870.28
2023-01-10T17:24:29.993Z,100878.81
2023-01-10T17:26:58.151Z,100871.81
2023-01-10T17:29:26.092Z,100863.41
2023-01-10T17:31:54.459Z,100844.59
2023-01-10T17:34:22.537Z,100859.09
2023-01-10T17:36:52.224Z,100859.63
2023-01-10T17:39:20.163Z,100865.34
2023-01-10T17:41:48.088Z,100853.25
2023-01-10T17:44:16.082Z,100835.47
2023-01-10T17:46:44.137Z,100823.91
2023-01-10T17:49:13.466Z,100814.78
2023-01-10T17:51:41.664Z,100807.66
2023-01-10T17:54:11.136Z,100811.25
2023-01-10T17:56:39.378Z,100796.00
2023-01-10T17:59:07.373Z,100795.44
2023-01-10T18:01:35.345Z,100788.19
2023-01-10T18:04:03.633Z,100785.28
2023-01-10T18:06:31.574Z,100778.75
2023-01-10T18:09:01.749Z,100789.31
2023-01-10T18:11:32.857Z,100771.38
2023-01-10T18:14:20.873Z,100764.41
2023-01-10T18:16:49.325Z,100759.56
2023-01-10T18:19:17.349Z,100751.84
2023-01-10T18:21:45.199Z,100747.00
2023-01-10T18:24:13.292Z,100721.53
2023-01-10T18:26:42.771Z,100721.22
2023-01-10T18:29:11.216Z,100720.81
2023-01-10T18:31:41.297Z,100711.84
2023-01-10T18:34:09.507Z,100710.00
2023-01-10T18:36:40.062Z,100707.00
2023-01-10T18:39:08.173Z,100697.47
2023-01-10T18:41:36.564Z,100676.97
2023-01-10T18:44:06.262Z,100683.66
2023-01-10T18:46:34.273Z,100684.25
2023-01-10T18:49:02.561Z,100676.41
2023-01-10T18:51:30.599Z,100669.84
2023-01-10T18:53:58.658Z,100671.41
2023-01-10T18:56:26.731Z,100662.31
2023-01-10T18:58:54.762Z,100649.66
2023-01-10T19:01:24.457Z,100656.34
2023-01-10T19:03:52.928Z,100630.75
2023-01-10T19:06:22.804Z,100656.34
2023-01-10T19:08:51.799Z,100644.09
2023-01-10T19:11:20.542Z,100648.50
2023-01-10T19:13:51.420Z,100644.66
2023-01-10T19:16:21.814Z,100650.53
2023-01-10T19:18:52.961Z,100642.13
2023-01-10T19:21:21.325Z,100623.91
2023-01-10T19:23:52.135Z,100626.19
2023-01-10T19:26:20.702Z,100639.13
2023-01-10T19:28:49.192Z,100628.31
2023-01-10T19:31:18.170Z,100625.63
2023-01-10T19:33:48.065Z,100627.59
2023-01-10T19:36:19.141Z,100619.06
2023-01-10T19:38:47.457Z,100619.50
2023-01-10T19:41:16.233Z,100616.81
2023-01-10T19:43:44.301Z,100601.13
2023-01-10T19:46:13.876Z,100603.00
2023-01-10T19:48:41.949Z,100595.44
2023-01-10T19:51:12.386Z,100606.66
2023-01-10T19:53:45.482Z,100582.47
2023-01-10T19:56:18.358Z,100593.88
2023-01-10T19:58:47.761Z,100584.16
2023-01-10T20:01:17.413Z,100579.91
2023-01-10T20:03:46.712Z,100568.13
2023-01-10T20:06:17.015Z,100572.91
2023-01-10T20:08:47.542Z,100565.44
2023-01-10T20:11:16.811Z,100563.97
2023-01-10T20:13:45.741Z,100568.69
2023-01-10T20:16:14.703Z,100564.69
2023-01-10T20:18:43.040Z,100558.97
2023-01-10T20:21:13.076Z,100558.97
2023-01-10T20:23:42.509Z,100546.22
2023-01-10T20:26:13.772Z,100552.69
2023-01-10T20:28:42.713Z,100546.22
2023-01-10T20:31:13.880Z,100543.75
2023-01-10T20:33:41.963Z,100543.31
2023-01-10T20:36:13.726Z,100543.59
2023-01-10T20:38:41.912Z,100544.00
2023-01-10T20:41:13.740Z,100530.63
2023-01-10T20:43:42.338Z,100535.28
2023-01-10T20:46:12.454Z,100514.44
2023-01-10T20:48:41.768Z,100508.16
2023-01-10T20:51:13.344Z,100496.91
2023-01-10T20:53:41.464Z,100499.31
2023-01-10T20:56:15.099Z,100506.78
2023-01-10T20:58:43.890Z,100495.97
2023-01-10T21:01:24.829Z,100508.00
2023-01-10T21:03:57.920Z,100481.91
2023-01-10T21:06:26.689Z,100489.84
2023-01-10T21:08:54.985Z,100488.56
2023-01-10T21:11:25.122Z,100483.56
2023-01-10T21:13:53.271Z,100474.84
2023-01-10T21:16:22.592Z,100470.47
2023-01-10T21:18:51.144Z,100466.97
2023-01-10T21:21:20.683Z,100441.91
2023-01-10T21:23:49.113Z,100455.69
2023-01-10T21:26:17.144Z,100455.91
2023-01-10T21:28:47.817Z,100433.34
2023-01-10T21:31:18.443Z,100433.09
2023-01-10T21:33:46.745Z,100443.16
2023-01-10T21:36:14.843Z,100439.00
2023-01-10T21:38:43.709Z,100452.13
2023-01-10T21:41:14.529Z,100445.28
2023-01-10T21:43:44.510Z,100427.00
2023-01-10T21:46:14.074Z,100427.41
2023-01-10T21:48:42.035Z,100420.38
2023-01-10T21:51:10.008Z,100410.53
2023-01-10T21:53:41.294Z,100406.38
2023-01-10T21:56:09.616Z,100411.94
2023-01-10T21:58:37.471Z,100410.31
2023-01-10T22:01:06.045Z,100396.00
2023-01-10T22:03:35.987Z,100392.44
2023-01-10T22:06:04.396Z,100399.94
2023-01-10T22:08:32.269Z,100403.41
2023-01-10T22:11:00.323Z,100404.25
2023-01-10T22:13:28.358Z,100394.38
2023-01-10T22:15:59.405Z,100388.63
2023-01-10T22:18:28.182Z,100383.22
2023-01-10T22:20:58.841Z,100386.22
2023-01-10T22:23:29.468Z,100370.09
2023-01-10T22:26:01.775Z,100369.03
2023-01-10T22:28:31.025Z,100356.22
2023-01-10T22:30:59.628Z,100376.91
2023-01-10T22:33:30.840Z,100379.09
2023-01-10T22:36:06.061Z,100376.66
2023-01-10T22:38:34.482Z,100369.78
2023-01-10T22:41:06.975Z,100369.88
2023-01-10T22:43:35.388Z,100344.69
2023-01-10T22:46:03.517Z,100359.47
2023-01-10T22:48:31.442Z,100360.53
2023-01-10T22:51:01.261Z,100357.34
2023-01-10T22:53:30.525Z,100371.53
2023-01-10T22:56:00.819Z,100362.00
2023-01-10T22:58:29.096Z,100367.16
2023-01-10T23:00:57.415Z,100334.38
2023-01-10T23:03:25.895Z,100355.81
2023-01-10T23:05:55.763Z,100329.81
2023-01-10T23:08:23.770Z,100342.28
2023-01-10T23:10:54.007Z,100361.03
2023-01-10T23:13:22.441Z,100348.22
2023-01-10T23:15:57.273Z,100359.03
2023-01-10T23:18:25.415Z,100360.25
2023-01-10T23:20:53.477Z,100335.31
2023-01-10T23:23:21.588Z,100348.50
2023-01-10T23:26:01.432Z,100356.84
2023-01-10T23:28:32.528Z,100346.00
2023-01-10T23:31:00.530Z,100347.06
2023-01-10T23:33:28.733Z,100357.59
2023-01-10T23:35:56.752Z,100346.56
2023-01-10T23:38:24.876Z,100349.13
2023-01-10T23:40:53.030Z,100350.13
2023-01-10T23:43:20.890Z,100337.78
2023-01-10T23:45:50.396Z,100343.88
2023-01-10T23:48:18.767Z,100343.50
2023-01-10T23:50:48.685Z,100351.97
2023-01-10T23:53:16.615Z,100333.72
2023-01-10T23:55:44.716Z,100331.88
2023-01-10T23:58:12.793Z,100332.94
